Time;durP1;ratioP1;P1;durP2;ratioP2;P2;SDS_P1;SDS_P2;PMS_P1;PMS_P2;Temp;Humidity;BMP_temperature;BMP_pressure;BME280_temperature;BME280_humidity;BME280_pressure;Samples;Min_cycle;Max_cycle;Signal;HPM_P1;HPM_P2
2023/06/22 00:01:56;;;;;;;0.20;0.20;;;18.10;99.90;;;;;;5024391;28;20057;-81
2023/06/22 00:04:22;;;;;;;0.20;0.20;;;18.10;99.90;;;;;;4996250;28;20046;-80
2023/06/22 00:06:47;;;;;;;0.20;0.20;;;18.10;99.90;;;;;;5012989;28;20056;-80
2023/06/22 00:09:13;;;;;;;0.20;0.20;;;18.10;99.90;;;;;;5022946;28;20485;-80
2023/06/22 00:11:39;;;;;;;0.10;0.10;;;18.10;99.90;;;;;;5009207;28;20567;-80
2023/06/22 00:14:05;;;;;;;0.17;0.17;;;18.00;99.90;;;;;;5012331;28;20048;-80
2023/06/22 00:16:33;;;;;;;0.10;0.10;;;18.00;99.90;;;;;;5022866;28;20046;-80
2023/06/22 00:19:00;;;;;;;0.10;0.10;;;17.90;99.90;;;;;;5008169;28;20054;-80
2023/06/22 00:21:30;;;;;;;0.20;0.20;;;18.00;99.90;;;;;;5009580;28;20050;-80
2023/06/22 00:23:57;;;;;;;0.17;0.17;;;17.90;99.90;;;;;;5009502;28;20370;-80
2023/06/22 00:26:23;;;;;;;0.10;0.10;;;17.90;99.90;;;;;;5001447;28;20052;-80
2023/06/22 00:28:48;;;;;;;0.20;0.20;;;17.90;99.90;;;;;;5017558;28;20045;-80
2023/06/22 00:31:14;;;;;;;0.10;0.10;;;17.90;99.90;;;;;;5027865;28;20086;-80
2023/06/22 00:33:40;;;;;;;0.10;0.10;;;17.90;99.90;;;;;;5008212;28;20061;-80
2023/06/22 00:36:07;;;;;;;0.15;0.15;;;17.90;99.90;;;;;;5011039;28;20128;-80
2023/06/22 00:38:34;;;;;;;0.20;0.20;;;17.90;99.90;;;;;;5014761;28;20490;-80
2023/06/22 00:40:59;;;;;;;0.15;0.15;;;17.80;99.90;;;;;;5011655;28;20045;-80
2023/06/22 00:43:25;;;;;;;0.13;0.13;;;17.80;99.90;;;;;;5011864;28;20042;-80
2023/06/22 00:45:50;;;;;;;0.10;0.10;;;17.80;99.90;;;;;;5008969;28;20509;-80
2023/06/22 00:48:17;;;;;;;0.13;0.13;;;17.80;99.90;;;;;;5008025;28;20068;-80
2023/06/22 00:50:42;;;;;;;0.10;0.10;;;17.80;99.90;;;;;;5006258;28;20127;-80
2023/06/22 00:53:09;;;;;;;0.20;0.20;;;17.80;99.90;;;;;;5012545;28;20462;-80
2023/06/22 00:55:39;;;;;;;0.20;0.20;;;17.80;99.90;;;;;;5006368;28;20046;-79
2023/06/22 00:58:10;;;;;;;0.17;0.17;;;17.80;99.90;;;;;;5006990;28;20057;-80
2023/06/22 01:00:37;;;;;;;0.20;0.20;;;17.70;99.90;;;;;;5006474;28;20037;-80
2023/06/22 01:03:03;;;;;;;0.20;0.20;;;17.70;99.90;;;;;;5004546;28;20395;-81
2023/06/22 01:05:31;;;;;;;0.10;0.10;;;17.70;99.90;;;;;;5005011;28;20042;-80
2023/06/22 01:08:21;;;;;;;0.10;0.10;;;17.70;99.90;;;;;;5008747;28;20463;-80
2023/06/22 01:10:56;;;;;;;0.20;0.20;;;17.60;99.90;;;;;;5007381;28;20069;-81
2023/06/22 01:13:41;;;;;;;0.20;0.20;;;17.60;99.90;;;;;;4993055;28;20046;-81
2023/06/22 01:16:17;;;;;;;0.17;0.17;;;17.60;99.90;;;;;;5011964;28;20085;-80
2023/06/22 01:18:44;;;;;;;0.10;0.10;;;17.50;99.90;;;;;;5003966;28;20553;-80
2023/06/22 01:21:17;;;;;;;0.10;0.10;;;17.50;99.90;;;;;;5006589;28;20133;-80
2023/06/22 01:23:58;;;;;;;0.20;0.20;;;17.40;99.90;;;;;;5012051;28;20103;-80
2023/06/22 01:26:58;;;;;;;0.17;0.17;;;17.40;99.90;;;;;;5013229;28;20054;-80
2023/06/22 01:29:26;;;;;;;0.20;0.20;;;17.30;99.90;;;;;;4994855;28;20445;-80
2023/06/22 01:31:53;;;;;;;0.10;0.10;;;17.30;99.90;;;;;;5011799;28;20100;-80
2023/06/22 01:34:21;;;;;;;0.20;0.20;;;17.20;99.90;;;;;;5004023;28;20060;-79
2023/06/22 01:36:47;;;;;;;0.20;0.20;;;17.20;99.90;;;;;;5009423;28;20054;-80
2023/06/22 01:39:13;;;;;;;0.20;0.20;;;17.20;99.90;;;;;;5024856;28;20045;-80
2023/06/22 01:41:41;;;;;;;0.20;0.20;;;17.20;99.90;;;;;;5019371;28;20168;-80
2023/06/22 01:44:09;;;;;;;0.20;0.20;;;17.20;99.90;;;;;;5026762;28;20045;-81
2023/06/22 01:46:35;;;;;;;0.20;0.20;;;17.20;99.90;;;;;;5022355;28;20525;-81
2023/06/22 01:49:03;;;;;;;0.10;0.10;;;17.20;99.90;;;;;;5009092;28;20429;-80
2023/06/22 01:51:30;;;;;;;0.20;0.20;;;17.20;99.90;;;;;;5013502;28;20037;-80
2023/06/22 01:53:56;;;;;;;0.15;0.15;;;17.20;99.90;;;;;;5015844;28;20464;-81
2023/06/22 01:56:21;;;;;;;0.20;0.20;;;17.10;99.90;;;;;;5009626;28;20057;-80
2023/06/22 01:59:09;;;;;;;0.20;0.20;;;17.10;99.90;;;;;;5012621;28;20049;-80
2023/06/22 02:01:52;;;;;;;0.20;0.20;;;17.10;99.90;;;;;;5004676;28;20057;-80
2023/06/22 02:04:26;;;;;;;0.13;0.13;;;17.00;99.90;;;;;;5005147;28;20042;-80
2023/06/22 02:06:56;;;;;;;0.10;0.10;;;17.00;99.90;;;;;;5031413;28;20511;-81
2023/06/22 02:09:23;;;;;;;0.10;0.10;;;17.00;99.90;;;;;;5027966;28;20054;-81
2023/06/22 02:11:54;;;;;;;0.10;0.10;;;17.00;99.90;;;;;;5022658;28;20046;-80
2023/06/22 02:14:20;;;;;;;;;;;17.00;99.90;;;;;;5025229;28;20069;-80
2023/06/22 02:16:46;;;;;;;0.10;0.10;;;17.00;99.90;;;;;;5013254;28;20284;-81
2023/06/22 02:19:12;;;;;;;0.20;0.20;;;17.00;99.90;;;;;;5009506;28;20049;-81
2023/06/22 02:21:38;;;;;;;0.20;0.20;;;17.00;99.90;;;;;;5017597;28;20168;-81
2023/06/22 02:24:04;;;;;;;0.20;0.20;;;17.00;99.90;;;;;;5025247;28;20049;-81
2023/06/22 02:26:30;;;;;;;0.13;0.13;;;17.00;99.90;;;;;;5012037;28;20042;-80
2023/06/22 02:28:56;;;;;;;0.20;0.20;;;17.00;99.90;;;;;;5011814;28;20049;-81
2023/06/22 02:31:22;;;;;;;0.10;0.10;;;17.00;99.90;;;;;;5010809;28;20216;-81
2023/06/22 02:33:48;;;;;;;0.17;0.17;;;17.00;99.90;;;;;;5011788;28;20061;-81
2023/06/22 02:36:14;;;;;;;0.15;0.15;;;17.00;99.90;;;;;;5018351;28;20054;-81
2023/06/22 02:38:47;;;;;;;0.10;0.10;;;16.90;99.90;;;;;;5010869;28;20053;-80
2023/06/22 02:41:17;;;;;;;0.20;0.20;;;16.90;99.90;;;;;;5009959;28;20049;-82
2023/06/22 02:43:45;;;;;;;0.20;0.20;;;16.90;99.90;;;;;;5009068;28;20037;-80
2023/06/22 02:46:12;;;;;;;0.10;0.10;;;16.90;99.90;;;;;;5012033;28;20072;-80
2023/06/22 02:48:39;;;;;;;0.10;0.10;;;16.90;99.90;;;;;;4999438;28;20046;-81
2023/06/22 02:51:04;;;;;;;0.20;0.20;;;16.90;99.90;;;;;;5006187;28;20477;-81
2023/06/22 02:53:30;;;;;;;0.20;0.20;;;16.90;99.90;;;;;;5010092;28;20062;-80
2023/06/22 02:55:56;;;;;;;0.10;0.10;;;16.90;99.90;;;;;;5024630;28;20128;-80
2023/06/22 02:58:21;;;;;;;0.20;0.20;;;16.90;99.90;;;;;;5002427;28;20125;-81
2023/06/22 03:00:47;;;;;;;0.17;0.17;;;16.90;99.90;;;;;;5001946;28;20041;-80
2023/06/22 03:03:13;;;;;;;0.15;0.15;;;16.90;99.90;;;;;;5010006;28;20405;-81
2023/06/22 03:05:40;;;;;;;0.10;0.10;;;16.90;99.90;;;;;;5006327;28;20038;-81
2023/06/22 03:08:05;;;;;;;0.10;0.10;;;16.90;99.90;;;;;;5007409;28;20044;-80
2023/06/22 03:10:31;;;;;;;0.20;0.20;;;16.90;99.90;;;;;;5011064;28;20117;-81
2023/06/22 03:12:57;;;;;;;0.10;0.10;;;16.90;99.90;;;;;;5017691;28;20084;-81
2023/06/22 03:15:22;;;;;;;0.20;0.20;;;16.80;99.90;;;;;;5028654;28;20452;-81
2023/06/22 03:17:48;;;;;;;0.10;0.10;;;16.80;99.90;;;;;;5018279;28;20046;-81
2023/06/22 03:20:14;;;;;;;0.15;0.15;;;16.80;99.90;;;;;;5024512;28;20069;-81
2023/06/22 03:22:41;;;;;;;0.20;0.20;;;16.80;99.90;;;;;;5009918;28;20050;-81
2023/06/22 03:25:10;;;;;;;0.20;0.20;;;16.70;99.90;;;;;;5009990;28;20081;-81
2023/06/22 03:27:40;;;;;;;0.20;0.20;;;16.70;99.90;;;;;;5010564;28;20046;-81
2023/06/22 03:30:08;;;;;;;0.10;0.10;;;16.70;99.90;;;;;;5009047;28;20096;-81
2023/06/22 03:32:34;;;;;;;0.20;0.20;;;16.60;99.90;;;;;;5021653;28;20045;-81
2023/06/22 03:35:00;;;;;;;0.20;0.20;;;16.60;99.90;;;;;;5015262;28;20056;-81
2023/06/22 03:37:26;;;;;;;0.10;0.10;;;16.60;99.90;;;;;;5029983;28;20045;-81
2023/06/22 03:39:52;;;;;;;0.15;0.15;;;16.50;99.90;;;;;;5023182;28;20478;-81
2023/06/22 03:42:18;;;;;;;0.10;0.10;;;16.60;99.90;;;;;;5019760;28;20539;-81
2023/06/22 03:44:44;;;;;;;0.10;0.10;;;16.70;99.90;;;;;;5017594;28;20124;-81
2023/06/22 03:47:10;;;;;;;0.10;0.10;;;16.70;99.90;;;;;;5008417;28;20141;-81
2023/06/22 03:49:36;;;;;;;0.20;0.20;;;16.70;99.90;;;;;;5006425;28;20035;-81
2023/06/22 03:52:02;;;;;;;0.13;0.13;;;16.70;99.90;;;;;;5004840;28;20057;-81
2023/06/22 03:54:29;;;;;;;0.20;0.20;;;16.70;99.90;;;;;;5011337;28;20418;-81
2023/06/22 03:56:57;;;;;;;0.13;0.13;;;16.80;99.90;;;;;;5023159;28;20053;-81
2023/06/22 03:59:22;;;;;;;0.20;0.20;;;16.80;99.90;;;;;;5001913;28;20113;-81
2023/06/22 04:01:48;;;;;;;0.17;0.17;;;16.80;99.90;;;;;;5025151;28;20120;-81
2023/06/22 04:04:14;;;;;;;0.10;0.10;;;16.90;99.90;;;;;;5007616;28;20041;-81
2023/06/22 04:06:39;;;;;;;0.20;0.20;;;16.90;99.90;;;;;;5010288;28;20100;-81
2023/06/22 04:09:08;;;;;;;0.20;0.20;;;16.90;99.90;;;;;;5017600;28;20100;-82
2023/06/22 04:11:34;;;;;;;0.10;0.10;;;16.90;99.90;;;;;;5010001;28;20096;-81
2023/06/22 04:14:00;;;;;;;0.20;0.20;;;17.00;99.90;;;;;;5017441;28;20046;-81
2023/06/22 04:16:26;;;;;;;0.10;0.10;;;17.00;99.90;;;;;;5005530;28;20041;-81
2023/06/22 04:18:51;;;;;;;0.20;0.20;;;17.00;99.90;;;;;;5007833;28;20030;-80
2023/06/22 04:21:19;;;;;;;0.10;0.10;;;17.00;99.90;;;;;;4995149;28;20117;-81
2023/06/22 04:23:45;;;;;;;0.20;0.20;;;17.00;99.90;;;;;;4996881;28;20445;-80
2023/06/22 04:26:12;;;;;;;0.20;0.20;;;17.00;99.90;;;;;;5007635;28;20113;-81
2023/06/22 04:28:37;;;;;;;0.20;0.20;;;17.10;99.90;;;;;;5018622;28;20053;-82
2023/06/22 04:31:04;;;;;;;0.20;0.20;;;17.10;99.90;;;;;;5027029;28;20255;-80
2023/06/22 04:33:30;;;;;;;0.10;0.10;;;17.10;99.90;;;;;;5018013;28;20046;-81
2023/06/22 04:35:57;;;;;;;0.20;0.20;;;17.10;99.90;;;;;;5011589;28;20160;-80
2023/06/22 04:38:23;;;;;;;0.20;0.20;;;17.20;99.90;;;;;;5009755;28;20088;-81
2023/06/22 04:40:49;;;;;;;0.20;0.20;;;17.20;99.90;;;;;;5013761;28;20041;-80
2023/06/22 04:43:15;;;;;;;0.20;0.20;;;17.20;99.90;;;;;;5008423;28;20056;-81
2023/06/22 04:45:41;;;;;;;0.17;0.17;;;17.20;99.90;;;;;;5007161;28;20042;-81
2023/06/22 04:48:09;;;;;;;0.13;0.13;;;17.20;99.90;;;;;;5011032;28;20041;-81
2023/06/22 04:50:38;;;;;;;0.20;0.20;;;17.20;99.90;;;;;;5012068;28;20092;-81
2023/06/22 04:53:05;;;;;;;0.20;0.20;;;17.20;99.90;;;;;;5005757;28;20583;-80
2023/06/22 04:55:32;;;;;;;0.17;0.17;;;17.20;99.90;;;;;;5013211;28;20516;-81
2023/06/22 04:58:04;;;;;;;0.20;0.20;;;17.30;99.90;;;;;;5023699;28;20061;-81
2023/06/22 05:00:30;;;;;;;0.10;0.10;;;17.30;99.90;;;;;;5028399;28;20167;-80
2023/06/22 05:02:57;;;;;;;0.20;0.20;;;17.30;99.90;;;;;;4993016;28;20056;-80
2023/06/22 05:05:24;;;;;;;0.20;0.20;;;17.40;99.90;;;;;;5019761;28;20046;-80
2023/06/22 05:08:00;;;;;;;0.20;0.20;;;17.40;99.90;;;;;;5030407;28;20045;-80
2023/06/22 05:10:26;;;;;;;0.20;0.20;;;17.40;99.90;;;;;;5022514;28;20072;-80
2023/06/22 05:12:53;;;;;;;0.10;0.10;;;17.40;99.90;;;;;;5010211;28;20042;-81
2023/06/22 05:15:19;;;;;;;0.10;0.10;;;17.50;99.90;;;;;;5026666;28;20041;-80
2023/06/22 05:17:45;;;;;;;0.20;0.20;;;17.50;99.90;;;;;;5014365;28;20034;-81
2023/06/22 05:20:12;;;;;;;0.20;0.20;;;17.60;99.90;;;;;;5010328;28;20048;-80
2023/06/22 05:22:38;;;;;;;0.10;0.10;;;17.60;99.90;;;;;;5012549;28;20433;-81
2023/06/22 05:25:08;;;;;;;0.20;0.20;;;17.70;99.90;;;;;;5007729;28;20490;-81
2023/06/22 05:27:33;;;;;;;0.20;0.20;;;17.70;99.90;;;;;;5001725;28;20099;-81
2023/06/22 05:29:59;;;;;;;0.20;0.20;;;17.80;99.90;;;;;;5000528;28;20042;-80
2023/06/22 05:32:25;;;;;;;0.13;0.13;;;17.80;99.90;;;;;;5007575;28;20053;-80
2023/06/22 05:34:50;;;;;;;0.17;0.17;;;17.90;99.90;;;;;;5002334;28;20053;-80
2023/06/22 05:37:16;;;;;;;0.10;0.10;;;17.90;99.90;;;;;;5008501;28;20053;-81
2023/06/22 05:39:42;;;;;;;0.17;0.17;;;17.90;99.90;;;;;;5009746;28;20037;-80
2023/06/22 05:42:08;;;;;;;0.20;0.20;;;18.00;99.90;;;;;;5005246;28;20493;-80
2023/06/22 05:44:33;;;;;;;0.20;0.20;;;18.00;99.90;;;;;;5006659;28;20195;-82
2023/06/22 05:46:59;;;;;;;0.10;0.10;;;18.10;99.90;;;;;;5016142;28;20049;-82
2023/06/22 05:49:29;;;;;;;0.15;0.15;;;18.20;99.90;;;;;;5008373;28;20482;-84
2023/06/22 05:51:56;;;;;;;0.10;0.10;;;18.30;99.90;;;;;;5008108;28;20256;-80
2023/06/22 05:54:22;;;;;;;0.10;0.10;;;18.30;99.90;;;;;;5006728;28;20139;-80
2023/06/22 05:56:48;;;;;;;0.10;0.10;;;18.40;99.90;;;;;;5000516;28;20474;-80
2023/06/22 05:59:13;;;;;;;0.13;0.13;;;18.40;99.90;;;;;;5002679;28;20085;-80
2023/06/22 06:01:40;;;;;;;0.20;0.20;;;18.50;99.90;;;;;;4993711;28;20045;-81
2023/06/22 06:04:07;;;;;;;0.20;0.20;;;18.60;99.90;;;;;;5006159;28;20049;-80
2023/06/22 06:06:34;;;;;;;0.10;0.10;;;18.60;99.90;;;;;;5007619;28;20072;-81
2023/06/22 06:09:00;;;;;;;0.20;0.20;;;18.70;99.90;;;;;;5011804;28;20455;-80
2023/06/22 06:11:26;;;;;;;0.20;0.20;;;18.70;99.90;;;;;;4999992;28;20034;-81
2023/06/22 06:13:52;;;;;;;0.10;0.10;;;18.80;99.90;;;;;;4990612;28;20042;-80
2023/06/22 06:16:18;;;;;;;0.10;0.10;;;18.90;99.90;;;;;;4998845;28;20041;-80
2023/06/22 06:18:43;;;;;;;0.20;0.20;;;18.90;99.90;;;;;;5002159;28;20041;-80
2023/06/22 06:21:09;;;;;;;0.20;0.20;;;19.00;99.90;;;;;;5002364;28;20604;-80
2023/06/22 06:23:35;;;;;;;0.20;0.20;;;19.10;99.90;;;;;;5001688;28;20034;-80
2023/06/22 06:26:01;;;;;;;0.32;0.20;;;19.20;99.90;;;;;;5010937;28;20488;-80
2023/06/22 06:28:27;;;;;;;0.15;0.15;;;19.20;99.90;;;;;;5001888;28;20042;-81
2023/06/22 06:30:52;;;;;;;0.20;0.20;;;19.30;99.90;;;;;;5002828;28;20389;-81
2023/06/22 06:33:20;;;;;;;0.10;0.10;;;19.40;99.90;;;;;;5003277;28;20047;-80
2023/06/22 06:35:46;;;;;;;0.20;0.20;;;19.40;99.90;;;;;;5003761;28;20660;-81
2023/06/22 06:38:12;;;;;;;0.20;0.20;;;19.50;99.90;;;;;;5000517;28;20072;-80
2023/06/22 06:40:37;;;;;;;0.20;0.20;;;19.60;99.90;;;;;;5001382;28;20077;-80
2023/06/22 06:43:03;;;;;;;0.10;0.10;;;19.60;99.90;;;;;;5017764;28;20525;-80
2023/06/22 06:45:31;;;;;;;0.20;0.20;;;19.70;99.90;;;;;;5005111;28;20069;-79
2023/06/22 06:47:57;;;;;;;0.40;0.30;;;19.70;99.90;;;;;;5000992;28;20058;-80
2023/06/22 06:50:23;;;;;;;0.20;0.20;;;19.80;99.90;;;;;;5008761;28;20038;-80
2023/06/22 06:52:50;;;;;;;0.10;0.10;;;19.80;99.90;;;;;;5010177;28;20272;-80
2023/06/22 06:55:16;;;;;;;0.20;0.20;;;20.00;99.90;;;;;;5011308;28;20058;-80
2023/06/22 06:57:43;;;;;;;0.20;0.20;;;20.00;99.90;;;;;;5010702;28;20045;-80
2023/06/22 07:00:13;;;;;;;0.20;0.20;;;20.10;99.90;;;;;;5005799;28;20049;-80
2023/06/22 07:02:48;;;;;;;0.20;0.20;;;20.10;99.90;;;;;;4999960;28;20065;-82
2023/06/22 07:05:13;;;;;;;0.10;0.10;;;20.20;99.90;;;;;;5003900;28;20065;-85
2023/06/22 07:07:41;;;;;;;0.20;0.20;;;20.20;99.90;;;;;;5012358;28;20042;-84
2023/06/22 07:10:07;;;;;;;0.20;0.20;;;20.30;99.90;;;;;;5020787;28;20049;-85
2023/06/22 07:12:33;;;;;;;0.20;0.20;;;20.30;99.90;;;;;;5025458;28;20046;-86
2023/06/22 07:15:09;;;;;;;0.20;0.20;;;20.30;99.90;;;;;;5010611;28;20045;-84
2023/06/22 07:17:40;;;;;;;0.20;0.20;;;20.40;99.90;;;;;;5008190;28;20049;-85
2023/06/22 07:20:11;;;;;;;0.20;0.20;;;20.50;99.90;;;;;;5010804;28;20041;-85
2023/06/22 07:22:38;;;;;;;0.20;0.20;;;20.50;99.90;;;;;;5009962;28;20038;-86
2023/06/22 07:25:10;;;;;;;0.20;0.20;;;20.60;99.90;;;;;;5000087;28;20130;-85
2023/06/22 07:27:37;;;;;;;0.20;0.20;;;20.70;99.90;;;;;;5012340;28;20142;-83
2023/06/22 07:30:04;;;;;;;0.22;0.22;;;20.70;99.90;;;;;;5007373;28;20046;-86
2023/06/22 07:32:30;;;;;;;0.20;0.20;;;20.80;99.90;;;;;;5012290;28;20528;-86
2023/06/22 07:34:55;;;;;;;0.17;0.17;;;20.80;99.90;;;;;;5012117;28;20077;-86
2023/06/22 07:37:21;;;;;;;0.20;0.20;;;20.90;99.90;;;;;;5012055;28;20048;-86
2023/06/22 07:39:47;;;;;;;0.20;0.20;;;20.90;99.90;;;;;;5011254;28;20436;-85
2023/06/22 07:42:18;;;;;;;0.20;0.20;;;21.00;99.90;;;;;;5012008;28;20604;-85
2023/06/22 07:44:44;;;;;;;0.20;0.20;;;21.00;99.90;;;;;;5009563;28;20045;-85
2023/06/22 07:47:10;;;;;;;0.10;0.10;;;21.00;99.90;;;;;;5012589;28;20050;-85
2023/06/22 07:49:35;;;;;;;0.10;0.10;;;21.10;99.90;;;;;;5007722;28;20512;-86
2023/06/22 07:52:01;;;;;;;0.10;0.10;;;21.10;99.90;;;;;;5009670;28;20046;-85
2023/06/22 07:54:27;;;;;;;0.20;0.20;;;21.10;99.90;;;;;;5008935;28;20061;-85
2023/06/22 07:56:53;;;;;;;0.20;0.20;;;21.20;99.90;;;;;;5001659;28;20056;-80
2023/06/22 07:59:19;;;;;;;0.20;0.20;;;21.20;99.90;;;;;;5006439;28;20509;-84
2023/06/22 08:01:44;;;;;;;0.20;0.20;;;21.20;99.90;;;;;;5005822;28;20464;-84
2023/06/22 08:04:10;;;;;;;0.20;0.20;;;21.30;99.90;;;;;;5014066;28;20385;-85
2023/06/22 08:06:36;;;;;;;0.20;0.20;;;21.30;99.90;;;;;;5015493;28;20049;-86
2023/06/22 08:09:01;;;;;;;0.20;0.20;;;21.40;99.90;;;;;;4996128;28;20053;-86
2023/06/22 08:11:28;;;;;;;0.20;0.20;;;21.40;99.90;;;;;;5009174;28;20041;-85
2023/06/22 08:13:55;;;;;;;0.20;0.20;;;21.40;99.90;;;;;;4995737;28;20125;-85
2023/06/22 08:16:21;;;;;;;0.20;0.20;;;21.50;99.90;;;;;;5001475;28;20073;-84
2023/06/22 08:18:47;;;;;;;0.20;0.20;;;21.60;99.90;;;;;;5008868;28;20494;-85
2023/06/22 08:21:13;;;;;;;0.10;0.10;;;21.60;99.90;;;;;;5010156;28;20045;-85
2023/06/22 08:23:38;;;;;;;0.20;0.20;;;21.70;99.90;;;;;;5008654;28;20128;-85
2023/06/22 08:26:04;;;;;;;0.20;0.20;;;21.70;99.90;;;;;;5001905;28;20391;-86
2023/06/22 08:28:30;;;;;;;0.20;0.20;;;21.70;99.90;;;;;;5001835;28;20038;-84
2023/06/22 08:30:55;;;;;;;0.20;0.20;;;21.70;99.90;;;;;;5007886;28;20045;-83
2023/06/22 08:33:23;;;;;;;0.20;0.20;;;21.80;99.90;;;;;;5010593;28;20033;-84
2023/06/22 08:35:50;;;;;;;0.10;0.10;;;21.80;99.90;;;;;;5008577;28;20056;-85
2023/06/22 08:38:18;;;;;;;0.20;0.20;;;21.80;99.90;;;;;;5008948;28;20061;-85
2023/06/22 08:40:44;;;;;;;0.17;0.17;;;21.80;99.90;;;;;;5013828;28;20062;-87
2023/06/22 08:43:09;;;;;;;0.25;0.25;;;21.90;99.90;;;;;;5006440;28;20534;-87
2023/06/22 08:45:35;;;;;;;0.20;0.20;;;21.90;99.90;;;;;;4994653;28;20045;-85
2023/06/22 08:48:01;;;;;;;0.15;0.15;;;22.00;99.90;;;;;;5006937;28;20409;-84
2023/06/22 08:50:27;;;;;;;0.20;0.20;;;22.10;99.90;;;;;;5004123;28;20512;-85
2023/06/22 08:52:52;;;;;;;0.20;0.20;;;22.10;99.90;;;;;;5009686;28;20049;-85
2023/06/22 08:55:18;;;;;;;0.20;0.20;;;22.10;99.90;;;;;;5007551;28;20038;-85
2023/06/22 08:57:44;;;;;;;0.20;0.20;;;22.10;99.90;;;;;;5007916;28;20149;-85
2023/06/22 09:00:20;;;;;;;0.20;0.20;;;22.20;99.90;;;;;;5009363;28;20041;-86
2023/06/22 09:02:48;;;;;;;0.20;0.20;;;22.20;99.90;;;;;;5027311;28;20053;-85
2023/06/22 09:05:14;;;;;;;0.20;0.20;;;22.30;99.90;;;;;;5018035;28;20052;-86
2023/06/22 09:07:40;;;;;;;0.20;0.20;;;22.30;99.90;;;;;;5008448;28;20030;-86
2023/06/22 09:10:06;;;;;;;0.20;0.20;;;22.40;99.90;;;;;;5008877;28;20042;-86
2023/06/22 09:12:32;;;;;;;0.20;0.20;;;22.40;99.90;;;;;;5007834;28;21235;-85
2023/06/22 09:15:00;;;;;;;0.20;0.20;;;22.40;99.90;;;;;;5009002;28;20132;-84
2023/06/22 09:17:27;;;;;;;0.20;0.20;;;22.50;99.90;;;;;;5008757;28;20053;-86
2023/06/22 09:19:53;;;;;;;0.20;0.20;;;22.50;99.90;;;;;;5013399;28;20046;-86
2023/06/22 09:22:18;;;;;;;0.20;0.20;;;22.60;99.90;;;;;;5009495;28;20054;-83
2023/06/22 09:24:44;;;;;;;0.20;0.20;;;22.60;99.90;;;;;;5009158;28;20042;-84
2023/06/22 09:27:09;;;;;;;0.20;0.20;;;22.60;99.90;;;;;;5007866;28;20071;-85
2023/06/22 09:29:35;;;;;;;0.20;0.20;;;22.70;99.90;;;;;;5011441;28;20469;-86
2023/06/22 09:32:01;;;;;;;0.20;0.20;;;22.70;99.90;;;;;;5003050;28;20513;-85
2023/06/22 09:34:27;;;;;;;0.20;0.20;;;22.70;99.90;;;;;;5007797;28;20041;-85
2023/06/22 09:36:52;;;;;;;0.20;0.20;;;22.80;99.90;;;;;;5009184;28;20042;-84
2023/06/22 09:39:19;;;;;;;0.20;0.20;;;22.80;99.90;;;;;;5007476;28;20046;-86
2023/06/22 09:41:44;;;;;;;0.20;0.20;;;22.90;99.90;;;;;;5008168;28;20048;-84
2023/06/22 09:44:10;;;;;;;0.20;0.20;;;22.90;99.90;;;;;;5021867;28;21332;-86
2023/06/22 09:46:36;;;;;;;0.20;0.20;;;23.00;99.90;;;;;;5005119;28;20440;-86
2023/06/22 09:49:01;;;;;;;0.20;0.20;;;23.00;99.90;;;;;;5003187;28;20454;-87
2023/06/22 09:51:27;;;;;;;0.20;0.20;;;23.10;99.90;;;;;;5010201;28;20413;-85
2023/06/22 09:53:56;;;;;;;0.20;0.20;;;23.10;99.90;;;;;;5019077;28;20486;-87
2023/06/22 09:56:22;;;;;;;0.20;0.20;;;23.10;99.90;;;;;;5013978;28;20042;-87
2023/06/22 09:58:50;;;;;;;0.20;0.20;;;23.20;99.90;;;;;;5011315;28;20053;-86
2023/06/22 10:01:15;;;;;;;0.20;0.20;;;23.20;99.90;;;;;;5011370;28;20508;-87
2023/06/22 10:03:41;;;;;;;0.20;0.20;;;23.20;99.90;;;;;;5017009;28;20041;-86
2023/06/22 10:06:08;;;;;;;0.20;0.20;;;23.20;99.90;;;;;;5031739;28;20053;-87
2023/06/22 10:08:34;;;;;;;0.20;0.20;;;23.30;99.90;;;;;;5019353;28;20065;-86
2023/06/22 10:11:00;;;;;;;0.20;0.20;;;23.30;99.90;;;;;;5004358;28;20364;-84
2023/06/22 10:13:25;;;;;;;0.20;0.20;;;23.40;99.90;;;;;;4999949;28;20125;-86
2023/06/22 10:15:52;;;;;;;0.25;0.25;;;23.40;99.90;;;;;;5000345;28;20049;-86
2023/06/22 10:18:21;;;;;;;0.40;0.40;;;23.40;99.90;;;;;;4999221;28;20100;-85
2023/06/22 10:20:51;;;;;;;0.20;0.20;;;23.50;99.90;;;;;;5002548;28;20042;-81
2023/06/22 10:23:17;;;;;;;0.20;0.20;;;23.60;99.90;;;;;;5002119;28;20103;-83
2023/06/22 10:25:43;;;;;;;0.20;0.20;;;23.60;99.90;;;;;;5004157;28;20391;-81
2023/06/22 10:28:09;;;;;;;0.20;0.20;;;23.70;99.90;;;;;;5029423;28;20040;-83
2023/06/22 10:30:34;;;;;;;0.20;0.20;;;23.70;99.90;;;;;;5008128;28;20050;-82
2023/06/22 10:33:00;;;;;;;0.20;0.20;;;23.90;99.90;;;;;;5009889;28;20049;-82
2023/06/22 10:35:26;;;;;;;0.20;0.20;;;23.90;99.90;;;;;;5010351;28;20046;-82
2023/06/22 10:37:52;;;;;;;0.20;0.20;;;24.00;99.90;;;;;;5005938;28;20477;-83
2023/06/22 10:40:18;;;;;;;0.20;0.20;;;24.00;99.90;;;;;;5032887;28;20049;-83
2023/06/22 10:42:44;;;;;;;0.20;0.20;;;24.00;99.90;;;;;;5008907;28;20963;-83
2023/06/22 10:45:10;;;;;;;0.20;0.20;;;24.00;99.90;;;;;;5010124;28;20129;-83
2023/06/22 10:47:36;;;;;;;0.20;0.20;;;24.10;99.90;;;;;;5011500;28;20049;-82
2023/06/22 10:50:03;;;;;;;0.20;0.20;;;24.10;99.90;;;;;;4993925;28;20102;-82
2023/06/22 10:52:29;;;;;;;0.20;0.20;;;24.20;99.90;;;;;;4993278;28;20375;-82
2023/06/22 10:54:54;;;;;;;0.20;0.20;;;24.30;99.90;;;;;;5004866;28;20065;-83
2023/06/22 10:57:21;;;;;;;0.20;0.20;;;24.30;99.90;;;;;;5008634;28;20050;-83
2023/06/22 10:59:46;;;;;;;0.20;0.20;;;24.40;99.90;;;;;;5009448;28;20045;-85
2023/06/22 11:02:12;;;;;;;0.20;0.20;;;24.40;99.90;;;;;;5000470;28;20038;-84
2023/06/22 11:04:38;;;;;;;0.20;0.20;;;24.50;99.90;;;;;;5010598;28;20089;-84
2023/06/22 11:07:04;;;;;;;0.20;0.20;;;24.50;99.90;;;;;;5004658;28;20490;-84
2023/06/22 11:09:30;;;;;;;0.20;0.20;;;24.50;99.90;;;;;;5014763;28;20052;-83
2023/06/22 11:11:56;;;;;;;0.20;0.20;;;24.60;99.90;;;;;;5013821;28;20061;-83
2023/06/22 11:14:22;;;;;;;0.20;0.20;;;24.60;99.90;;;;;;5020692;28;20344;-80
2023/06/22 11:16:48;;;;;;;0.20;0.20;;;24.70;99.90;;;;;;5009445;28;20389;-84
2023/06/22 11:19:13;;;;;;;0.30;0.30;;;24.80;99.90;;;;;;5011206;28;20134;-85
2023/06/22 11:21:39;;;;;;;0.85;0.35;;;24.90;99.90;;;;;;5014003;28;20054;-83
2023/06/22 11:24:05;;;;;;;0.20;0.20;;;25.10;99.90;;;;;;5013236;28;20045;-83
2023/06/22 11:26:31;;;;;;;0.30;0.30;;;25.20;99.90;;;;;;5008142;28;20528;-83
2023/06/22 11:28:57;;;;;;;0.20;0.20;;;25.30;99.90;;;;;;5007891;28;20046;-83
2023/06/22 11:31:24;;;;;;;0.20;0.20;;;25.30;99.90;;;;;;5010497;28;20064;-81
2023/06/22 11:33:49;;;;;;;0.20;0.20;;;25.40;99.90;;;;;;5006734;28;20112;-82
2023/06/22 11:36:15;;;;;;;0.20;0.20;;;25.40;99.90;;;;;;5008514;28;20042;-83
2023/06/22 11:38:42;;;;;;;0.32;0.32;;;25.40;99.90;;;;;;5008215;28;20561;-82
2023/06/22 11:41:09;;;;;;;0.20;0.20;;;25.40;99.90;;;;;;5010295;28;20050;-83
2023/06/22 11:43:35;;;;;;;0.20;0.20;;;25.40;99.90;;;;;;5009640;28;20121;-83
2023/06/22 11:46:04;;;;;;;0.20;0.20;;;25.40;99.90;;;;;;5002933;28;20497;-82
2023/06/22 11:48:30;;;;;;;0.10;0.10;;;25.50;99.90;;;;;;5025571;28;20065;-81
2023/06/22 11:50:56;;;;;;;0.20;0.20;;;25.50;99.90;;;;;;5008016;28;20054;-81
2023/06/22 11:53:24;;;;;;;0.20;0.20;;;25.50;99.90;;;;;;5009420;28;20060;-81
2023/06/22 11:55:50;;;;;;;0.20;0.20;;;25.50;99.90;;;;;;5013184;28;20095;-82
2023/06/22 11:58:16;;;;;;;0.20;0.20;;;25.50;99.90;;;;;;5008408;28;20414;-82
2023/06/22 12:00:42;;;;;;;0.20;0.20;;;25.50;99.90;;;;;;5006373;28;20038;-82
2023/06/22 12:03:09;;;;;;;0.20;0.20;;;25.50;99.90;;;;;;5003481;28;20045;-82
2023/06/22 12:05:35;;;;;;;0.20;0.20;;;25.40;99.90;;;;;;5007688;28;20034;-82
2023/06/22 12:08:00;;;;;;;0.20;0.20;;;25.40;99.90;;;;;;5010984;28;20041;-81
2023/06/22 12:10:28;;;;;;;0.20;0.20;;;25.40;99.90;;;;;;5009768;28;20038;-82
2023/06/22 12:12:54;;;;;;;0.15;0.15;;;25.30;99.90;;;;;;5009962;28;20120;-83
2023/06/22 12:15:20;;;;;;;0.20;0.20;;;25.30;99.90;;;;;;5008798;28;20192;-84
2023/06/22 12:17:45;;;;;;;0.20;0.20;;;25.30;99.90;;;;;;5019965;28;20048;-83
2023/06/22 12:20:11;;;;;;;0.20;0.20;;;25.30;99.90;;;;;;5023301;28;20034;-83
2023/06/22 12:22:37;;;;;;;0.20;0.20;;;25.30;99.90;;;;;;5011536;28;20409;-83
2023/06/22 12:25:03;;;;;;;0.20;0.20;;;25.30;99.90;;;;;;5010859;28;20042;-82
2023/06/22 12:27:30;;;;;;;0.20;0.20;;;25.30;99.90;;;;;;5009055;28;20468;-85
2023/06/22 12:29:56;;;;;;;0.20;0.20;;;25.20;99.90;;;;;;5008539;28;20474;-83
2023/06/22 12:32:22;;;;;;;0.20;0.20;;;25.20;99.90;;;;;;5010529;28;20037;-82
2023/06/22 12:34:47;;;;;;;0.20;0.20;;;25.20;99.90;;;;;;5008865;28;20052;-83
2023/06/22 12:37:13;;;;;;;0.20;0.20;;;25.10;99.90;;;;;;5009983;28;20057;-83
2023/06/22 12:39:41;;;;;;;0.20;0.20;;;25.20;99.90;;;;;;5028258;28;20037;-84
2023/06/22 12:42:08;;;;;;;0.20;0.20;;;25.20;99.90;;;;;;5024563;28;20096;-85
2023/06/22 12:44:35;;;;;;;0.20;0.20;;;25.20;99.90;;;;;;5008889;28;20046;-82
2023/06/22 12:47:01;;;;;;;0.20;0.20;;;25.20;99.90;;;;;;5010508;28;20048;-84